Latest Weather Observations for Cape Naturaliste

IDW60801

Issued at 10:33 pm WST Wednesday 17 July 2019 (issued every 10 minutes, with the page automatically refreshed every 10 minutes)

About weather observations | Map of weather stations | Latest weather observations for WA | Other Formats
Station Details ID: 009519 Name: CAPE NATURALISTE Lat: -33.54 Lon: 115.02 Height: 109.0 m
Data from the previous 72 hours. | See also: Recent months at Cape Naturaliste
Date/Time
WST
Temp
°C
App
Temp
°C
Dew
Point
°C
Rel
Hum
%
Delta-T
°C
Wind Press
QNH
hPa
Press
MSL
hPa
Rain since
9am
mm
Dir  Spd
km/h
Gust
km/h
Spd
kts
Gust
kts
17/10:30pm 15.4 11.6 13.6 89 1.0 WSW 26 32 14 17 1020.0 1019.9 0.4
17/10:00pm 15.5 12.9 13.7 89 1.0 W 20 24 11 13 1020.1 1020.0 0.4
17/09:30pm 15.7 13.0 13.5 87 1.2 W 20 26 11 14 1020.3 1020.2 0.4
17/09:00pm 16.4 11.7 13.3 82 1.7 W 30 37 16 20 1020.4 1020.3 0.0
17/08:30pm 17.0 12.6 12.9 77 2.3 W 28 35 15 19 1020.3 1020.2 0.0
17/08:00pm 17.2 11.9 12.5 74 2.6 W 32 39 17 21 1020.2 1020.1 0.0
17/07:30pm 17.5 12.1 12.8 74 2.6 W 33 43 18 23 1020.2 1020.1 0.0
17/07:00pm 17.5 12.7 12.8 74 2.6 WNW 30 37 16 20 1020.1 1020.0 0.0
17/06:30pm 17.4 12.1 12.5 73 2.7 W 32 39 17 21 1019.9 1019.8 0.0
17/06:00pm 17.4 13.2 12.3 72 2.8 WNW 26 35 14 19 1019.8 1019.7 0.0
17/05:30pm 17.3 12.9 11.8 70 3.0 WNW 26 35 14 19 1019.8 1019.7 0.0
17/05:00pm 17.4 12.9 11.4 68 3.3 WNW 26 35 14 19 1019.9 1019.8 0.0
17/04:30pm 17.7 13.4 10.8 64 3.7 WNW 24 32 13 17 1019.9 1019.8 0.0
17/04:00pm 18.0 13.4 11.1 64 3.7 WNW 26 35 14 19 1020.0 1019.9 0.0
17/03:30pm 18.0 14.0 11.8 67 3.4 NW 24 37 13 20 1020.0 1019.9 0.0
17/03:00pm 18.4 13.9 11.5 64 3.8 NW 26 35 14 19 1019.9 1019.8 0.0
17/02:30pm 19.6 14.7 11.4 59 4.5 NW 28 35 15 19 1019.9 1019.8 0.0
17/02:00pm 19.9 14.9 11.1 57 4.8 NW 28 39 15 21 1020.0 1019.9 0.0
17/01:30pm 20.0 14.8 11.5 58 4.7 NW 30 37 16 20 1019.9 1019.8 0.0
17/01:00pm 20.1 14.6 12.3 61 4.4 WNW 33 43 18 23 1020.5 1020.4 0.0
17/12:30pm 20.1 14.8 12.6 62 4.2 WNW 32 39 17 21 1021.0 1021.0 0.0
17/12:00pm 20.1 15.4 12.1 60 4.5 NW 28 39 15 21 1021.5 1021.5 0.0
17/11:30am 20.1 15.6 12.6 62 4.2 NW 28 37 15 20 1021.8 1021.8 0.0
17/11:00am 19.8 15.3 12.6 63 4.1 NNW 28 33 15 18 1022.2 1022.2 0.0
17/10:30am 19.5 15.3 12.5 64 3.9 NNW 26 33 14 18 1022.5 1022.5 0.0
17/10:00am 18.9 14.6 11.9 64 3.9 NNW 26 35 14 19 1022.5 1022.5 0.0
17/09:30am 17.8 14.0 11.1 65 3.6 NNW 22 32 12 17 1022.5 1022.5 0.0
17/09:00am 18.2 14.2 11.7 66 3.6 NNW 24 30 13 16 1022.5 1022.5 0.0
17/08:30am 17.2 13.6 11.7 70 3.0 NNW 22 30 12 16 1022.6 1022.6 0.0
17/08:00am 16.3 13.1 11.9 75 2.4 NNW 20 24 11 13 1022.8 1022.8 0.0
17/07:30am 15.9 12.4 12.1 78 2.1 NNW 22 30 12 16 1022.6 1022.6 0.0
17/07:00am 15.5 12.6 12.4 82 1.7 NNW 19 26 10 14 1022.7 1022.7 0.0
17/06:30am 15.2 12.4 12.7 85 1.4 N 19 26 10 14 1022.8 1022.8 0.0
17/06:00am 14.5 12.5 12.7 89 1.0 N 15 24 8 13 1022.9 1022.9 0.0
17/05:30am 13.5 11.6 11.9 90 0.9 N 13 24 7 13 1023.0 1023.0 0.0
17/05:00am 12.8 11.9 11.2 90 0.8 ENE 7 11 4 6 1022.9 1022.9 0.0
17/04:30am 12.6 11.2 11.0 90 0.8 ESE 9 13 5 7 1022.9 1022.9 0.0
17/04:00am 12.6 10.8 10.8 89 0.9 SE 11 13 6 7 1023.2 1023.2 0.0
17/03:30am 12.7 10.9 10.9 89 0.9 SE 11 13 6 7 1023.4 1023.4 0.0
17/03:00am 13.1 11.8 11.3 89 1.0 ESE 9 11 5 6 1023.7 1023.7 0.0
17/02:30am 13.4 11.8 11.5 88 1.0 ESE 11 13 6 7 1024.0 1024.0 0.0
17/02:00am 13.5 12.2 11.4 87 1.1 ESE 9 11 5 6 1024.4 1024.4 0.0
17/01:30am 13.6 12.3 11.3 86 1.2 ESE 9 13 5 7 1024.7 1024.7 0.0
17/01:00am 13.6 12.3 11.1 85 1.3 ESE 9 13 5 7 1024.9 1024.9 0.0
17/12:30am 13.5 12.0 10.7 83 1.5 ESE 9 11 5 6 1025.3 1025.3 0.0
17/12:00am 13.7 12.2 10.5 81 1.7 ESE 9 11 5 6 1025.7 1025.7 0.0
 
Date/Time
WST
Temp
°C
App
Temp
°C
Dew
Point
°C
Rel
Hum
%
Delta-T
°C
Wind Press
QNH
hPa
Press
MSL
hPa
Rain since
9am
mm
Dir  Spd
km/h
Gust
km/h
Spd
kts
Gust
kts
16/11:30pm 14.1 13.0 10.7 80 1.8 E 7 7 4 4 1026.2 1026.2 0.0
16/11:00pm 14.6 13.6 11.0 79 1.9 E 7 11 4 6 1026.5 1026.5 0.0
16/10:30pm 14.3 12.8 10.5 78 2.0 ESE 9 13 5 7 1026.7 1026.7 0.0
16/10:00pm 14.2 12.9 10.0 76 2.2 ESE 7 9 4 5 1026.8 1026.8 0.0
16/09:30pm 14.2 12.4 9.6 74 2.4 ESE 9 9 5 5 1026.9 1026.9 0.0
16/09:00pm 14.5 13.1 9.7 73 2.5 ENE 7 9 4 5 1026.8 1026.8 0.0
16/08:30pm 14.7 14.7 9.7 72 2.6 CALM 0 0 0 0 1026.9 1026.9 0.0
16/08:00pm 14.4 14.2 9.2 71 2.7 CALM 0 0 0 0 1026.8 1026.8 0.0
16/07:30pm 14.9 14.1 9.5 70 2.8 W 4 6 2 3 1026.8 1026.8 0.0
16/07:00pm 15.5 14.4 10.1 70 2.8 W 6 7 3 4 1026.8 1026.8 0.0
16/06:30pm 15.7 14.6 10.0 69 3.0 W 6 7 3 4 1026.6 1026.6 0.0
16/06:00pm 15.8 14.4 9.7 67 3.2 W 7 9 4 5 1026.5 1026.5 0.0
16/05:30pm 16.6 15.3 9.8 64 3.6 W 7 9 4 5 1026.5 1026.5 0.0
16/05:00pm 18.1 17.0 10.5 61 4.1 W 7 11 4 6 1026.5 1026.5 0.0
16/04:30pm 19.0 17.0 10.3 57 4.7 W 11 15 6 8 1026.6 1026.6 0.0
16/04:00pm 19.7 17.9 10.7 56 4.9 W 11 15 6 8 1026.6 1026.6 0.0
16/03:30pm 20.1 17.9 10.8 55 5.1 W 13 17 7 9 1026.6 1026.6 0.0
16/03:00pm 20.3 17.8 11.2 56 5.0 WSW 15 19 8 10 1026.5 1026.5 0.0
16/02:30pm 20.4 18.1 11.6 57 4.9 W 15 19 8 10 1026.6 1026.6 0.0
16/02:00pm 20.5 17.7 11.4 56 5.0 W 17 20 9 11 1026.6 1026.6 0.0
16/01:30pm 20.3 16.6 9.5 50 5.8 WNW 19 22 10 12 1026.9 1026.9 0.0
16/01:00pm 21.2 18.0 10.1 49 6.0 WNW 17 22 9 12 1027.2 1027.2 0.0
16/12:30pm 21.5 18.6 10.9 51 5.9 NW 17 24 9 13 1027.6 1027.6 0.0
16/12:00pm 20.7 16.9 9.0 47 6.2 WNW 19 26 10 14 1028.0 1028.0 0.0
16/11:30am 19.3 15.7 9.8 54 5.1 NW 19 26 10 14 1028.6 1028.6 0.0
16/11:00am 20.7 17.0 9.6 49 5.9 NNW 19 22 10 12 1028.8 1028.8 0.0
16/10:30am 20.3 16.8 10.1 52 5.5 NNW 19 22 10 12 1028.9 1028.9 0.0
16/10:00am 19.1 15.9 9.9 55 4.9 NNW 17 22 9 12 1028.9 1028.9 0.0
16/09:30am 19.7 16.8 10.9 57 4.8 NNW 17 24 9 13 1028.8 1028.8 0.0
16/09:00am 19.0 16.2 11.3 61 4.2 NNW 17 22 9 12 1028.7 1028.7 0.0
16/08:30am 17.9 14.6 10.8 63 3.8 NNW 19 24 10 13 1028.6 1028.6 0.0
16/08:00am 16.8 13.2 10.4 66 3.4 N 20 26 11 14 1028.3 1028.3 0.0
16/07:30am 15.7 12.3 10.5 71 2.8 N 19 24 10 13 1028.2 1028.2 0.0
16/07:00am 15.7 12.4 10.9 73 2.6 N 19 26 10 14 1027.9 1027.9 0.0
16/06:30am 15.6 12.6 10.6 72 2.7 N 17 24 9 13 1027.6 1027.6 0.0
16/06:00am 15.5 12.1 10.5 72 2.6 N 19 22 10 12 1027.5 1027.5 0.0
16/05:30am 15.6 12.1 11.0 74 2.5 N 20 28 11 15 1027.3 1027.3 0.0
16/05:00am 15.2 11.8 11.4 78 2.0 N 20 28 11 15 1027.3 1027.3 0.0
16/04:30am 14.5 11.6 12.4 87 1.1 NNE 19 28 10 15 1027.4 1027.4 0.0
16/04:00am 11.9 10.2 10.0 88 1.0 E 9 15 5 8 1027.5 1027.5 0.0
16/03:30am 11.5 8.9 9.4 87 1.1 E 13 15 7 8 1027.7 1027.7 0.0
16/03:00am 11.3 8.7 9.2 87 1.0 ESE 13 15 7 8 1027.9 1027.9 0.0
16/02:30am 11.2 8.2 9.1 87 1.1 ESE 15 17 8 9 1028.1 1028.1 0.0
16/02:00am 11.6 8.2 9.3 86 1.2 ESE 17 17 9 9 1028.1 1028.1 0.0
16/01:30am 12.2 8.9 9.6 84 1.3 ESE 17 19 9 10 1028.2 1028.2 0.0
16/01:00am 12.8 10.3 9.8 82 1.5 E 13 17 7 9 1028.3 1028.3 0.0
16/12:30am 14.1 11.2 10.9 81 1.7 NE 17 20 9 11 1028.6 1028.6 0.0
16/12:00am 14.4 11.5 11.0 80 1.8 NE 17 20 9 11 1028.7 1028.7 0.0
 
Date/Time
WST
Temp
°C
App
Temp
°C
Dew
Point
°C
Rel
Hum
%
Delta-T
°C
Wind Press
QNH
hPa
Press
MSL
hPa
Rain since
9am
mm
Dir  Spd
km/h
Gust
km/h
Spd
kts
Gust
kts
15/11:30pm 15.2 11.8 10.6 74 2.4 NE 19 24 10 13 1028.6 1028.6 0.0
15/11:00pm 15.5 11.4 8.7 64 3.5 NNE 20 26 11 14 1028.8 1028.8 0.0
15/10:30pm 15.5 11.6 8.7 64 3.5 N 19 22 10 12 1029.2 1029.2 0.0
15/10:00pm 15.4 11.3 8.6 64 3.4 NNE 20 24 11 13 1029.1 1029.1 0.0
15/09:30pm 15.3 11.5 9.0 66 3.2 NNE 19 24 10 13 1029.3 1029.3 0.0
15/09:00pm 15.3 11.4 9.4 68 3.0 NNE 20 26 11 14 1029.1 1029.1 0.0
15/08:30pm 15.1 11.5 9.7 70 2.8 NNE 19 24 10 13 1029.4 1029.4 0.0
15/08:00pm 14.9 11.6 9.5 70 2.8 NNE 17 22 9 12 1029.4 1029.4 0.0
15/07:30pm 15.0 11.3 9.6 70 2.8 NNE 19 24 10 13 1029.2 1029.2 0.0
15/07:00pm 15.0 11.4 9.8 71 2.7 NNE 19 24 10 13 1028.8 1028.8 0.0
15/06:30pm 15.0 11.4 9.8 71 2.7 NNE 19 24 10 13 1028.7 1028.7 0.0
15/06:00pm 15.1 11.5 9.7 70 2.8 N 19 26 10 14 1028.6 1028.6 0.0
15/05:30pm 15.2 11.3 9.6 69 2.9 NNE 20 26 11 14 1028.2 1028.2 0.0
15/05:00pm 15.9 11.7 9.8 67 3.2 NNE 22 28 12 15 1028.2 1028.2 0.0
15/04:30pm 16.7 13.0 10.3 66 3.4 N 20 26 11 14 1028.2 1028.2 0.0
15/04:00pm 17.1 12.6 10.2 64 3.6 N 24 32 13 17 1028.2 1028.2 0.0
15/03:30pm 17.4 12.5 9.8 61 4.0 NNE 26 35 14 19 1028.1 1028.1 0.0
15/03:00pm 17.7 12.5 10.3 62 3.9 N 28 39 15 21 1028.1 1028.1 0.0
15/02:30pm 17.6 11.9 9.8 60 4.1 N 30 37 16 20 1028.1 1028.1 0.0
15/02:00pm 18.2 13.1 10.6 61 4.1 NNE 28 35 15 19 1028.1 1028.1 0.0
15/01:30pm 17.7 12.1 10.3 62 4.0 NNE 30 37 16 20 1028.6 1028.6 0.0
15/01:00pm 18.0 12.9 10.6 62 4.0 NNE 28 37 15 20 1029.0 1029.0 0.0
15/12:30pm 17.8 12.3 10.4 62 4.0 NNE 30 39 16 21 1029.5 1029.5 0.0
15/12:00pm 17.4 11.4 10.1 62 3.9 NNE 32 39 17 21 1029.9 1029.9 0.0
15/11:30am 17.1 10.9 9.3 60 4.1 NNE 32 39 17 21 1030.3 1030.3 0.0
15/11:00am 16.8 10.4 9.2 61 3.9 NNE 33 41 18 22 1030.8 1030.8 0.0
15/10:30am 16.6 10.4 9.5 63 3.7 NNE 32 43 17 23 1031.1 1031.1 0.0
15/10:00am 16.1 9.7 9.3 64 3.5 NNE 33 44 18 24 1031.0 1031.0 0.0
15/09:30am 15.5 8.5 8.3 62 3.7 NNE 35 48 19 26 1030.8 1030.8 0.0
15/09:00am 15.3 8.4 9.0 66 3.2 NE 35 43 19 23 1030.8 1030.8 0.0
15/08:30am 14.8 8.2 8.5 66 3.2 NE 33 41 18 22 1030.9 1030.9 0.0
15/08:00am 14.3 7.3 8.3 67 3.0 NE 35 43 19 23 1030.9 1030.9 0.0
15/07:30am 13.9 7.2 8.3 69 2.8 NE 33 43 18 23 1030.6 1030.6 0.0
15/07:00am 13.8 7.4 8.6 71 2.6 NE 32 39 17 21 1030.7 1030.7 0.0
15/06:30am 13.7 7.3 8.5 71 2.6 NE 32 39 17 21 1030.3 1030.3 0.0
15/06:00am 13.4 7.2 8.0 70 2.7 NE 30 39 16 21 1030.1 1030.1 0.0
15/05:30am 13.3 7.6 8.2 71 2.5 ENE 28 35 15 19 1030.2 1030.2 0.0
15/05:00am 13.2 7.4 8.1 71 2.5 ENE 28 35 15 19 1030.2 1030.2 0.0
15/04:30am 13.0 7.6 8.1 72 2.4 ENE 26 32 14 17 1030.3 1030.3 0.0
15/04:00am 13.3 8.0 8.4 72 2.4 ENE 26 32 14 17 1030.2 1030.2 0.0
15/03:30am 13.4 8.5 8.3 71 2.6 ENE 24 32 13 17 1030.2 1030.2 0.0
15/03:00am 13.2 8.6 8.1 71 2.5 ENE 22 30 12 16 1030.5 1030.5 0.0
15/02:30am 13.2 9.0 8.1 71 2.5 ENE 20 28 11 15 1030.8 1030.8 0.0
15/02:00am 13.4 8.7 7.8 69 2.8 ENE 22 30 12 16 1031.0 1031.0 0.0
15/01:30am 13.6 8.1 7.6 67 3.0 ENE 26 33 14 18 1031.0 1031.0 0.0
15/01:00am 13.9 8.0 7.7 66 3.0 ENE 28 35 15 19 1031.0 1031.0 0.0
15/12:30am 14.0 7.9 8.4 69 2.8 ENE 30 37 16 20 1031.0 1031.0 0.0
15/12:00am 14.0 7.9 8.4 69 2.8 ENE 30 39 16 21 1030.9 1030.9 0.0
 
Date/Time
WST
Temp
°C
App
Temp
°C
Dew
Point
°C
Rel
Hum
%
Delta-T
°C
Wind Press
QNH
hPa
Press
MSL
hPa
Rain since
9am
mm
Dir  Spd
km/h
Gust
km/h
Spd
kts
Gust
kts
14/11:30pm 14.1 8.0 8.1 67 3.0 ENE 30 39 16 21 1030.9 1030.9 0.0
14/11:00pm 14.3 8.1 7.8 65 3.2 ENE 30 37 16 20 1031.1 1031.1 0.0

Other formats

Comma delimited format used in spreadsheet applications
http://www.bom.gov.au/fwo/IDW60801/IDW60801.94600.axf

JavaScript Object Notation format (JSON) in row-major order
http://www.bom.gov.au/fwo/IDW60801/IDW60801.94600.json

Data quality

Most of these data are generated automatically and are frequently updated. Quality checks on data are not normally performed. It is possible for incorrect values to appear. Refer to information at About Latest Weather Observations and please check the disclaimer before using these data.